createdAt,value
2023-03-30T00:01:15.074Z,98888.28
2023-03-30T00:03:45.831Z,98890.09
2023-03-30T00:06:20.894Z,98886.63
2023-03-30T00:08:58.448Z,98887.53
2023-03-30T00:11:26.933Z,98871.41
2023-03-30T00:13:54.552Z,98870.66
2023-03-30T00:16:21.830Z,98866.28
2023-03-30T00:18:48.644Z,98875.63
2023-03-30T00:21:18.158Z,98864.50
2023-03-30T00:23:48.507Z,98858.41
2023-03-30T00:26:16.664Z,98847.97
2023-03-30T00:28:43.421Z,98852.19
2023-03-30T00:31:11.488Z,98845.41
2023-03-30T00:33:46.262Z,98847.84
2023-03-30T00:36:14.773Z,98841.00
2023-03-30T00:38:41.721Z,98834.13
2023-03-30T00:41:09.192Z,98821.41
2023-03-30T00:43:55.581Z,98818.78
2023-03-30T00:46:23.989Z,98818.78
2023-03-30T00:48:51.318Z,98827.22
2023-03-30T00:51:19.336Z,98822.94
2023-03-30T00:53:51.475Z,98812.63
2023-03-30T00:56:27.006Z,98818.50
2023-03-30T00:58:54.926Z,98804.94
2023-03-30T01:01:28.814Z,98806.53
2023-03-30T01:03:59.972Z,98817.63
2023-03-30T01:06:29.926Z,98819.31
2023-03-30T01:08:58.137Z,98809.09
2023-03-30T01:11:26.723Z,98817.50
2023-03-30T01:14:01.191Z,98813.97
2023-03-30T01:17:29.480Z,98814.94
2023-03-30T01:20:43.015Z,98807.34
2023-03-30T01:23:47.345Z,98823.53
2023-03-30T01:26:50.525Z,98800.44
2023-03-30T01:29:47.754Z,98801.03
2023-03-30T01:32:39.849Z,98811.97
2023-03-30T01:35:43.745Z,98822.03
2023-03-30T01:39:05.732Z,98812.47
2023-03-30T01:41:49.225Z,98817.31
2023-03-30T01:44:36.691Z,98806.81
2023-03-30T01:47:39.504Z,98808.47
2023-03-30T01:50:23.536Z,98804.09
2023-03-30T01:53:28.948Z,98807.44
2023-03-30T01:56:12.189Z,98805.63
2023-03-30T01:59:06.676Z,98814.00
2023-03-30T02:01:39.317Z,98806.25
2023-03-30T02:04:10.306Z,98801.13
2023-03-30T02:07:10.000Z,98792.69
2023-03-30T02:09:40.648Z,98776.47
2023-03-30T02:12:10.864Z,98776.34
2023-03-30T02:14:40.967Z,98756.66
2023-03-30T02:17:28.036Z,98730.97
2023-03-30T02:19:56.960Z,98714.84
2023-03-30T02:22:27.021Z,98712.22
2023-03-30T02:24:56.734Z,98725.09
2023-03-30T02:27:25.473Z,98718.56
2023-03-30T02:29:52.678Z,98732.38
2023-03-30T02:32:33.707Z,98734.25
2023-03-30T02:35:22.234Z,98719.22
2023-03-30T02:38:24.404Z,98717.84
2023-03-30T02:40:59.635Z,98724.16
2023-03-30T02:43:44.546Z,98716.66
2023-03-30T02:46:36.456Z,98715.19
2023-03-30T02:49:46.941Z,98705.34
2023-03-30T02:52:52.385Z,98704.03
2023-03-30T02:55:35.324Z,98709.47
2023-03-30T02:58:24.143Z,98714.75
2023-03-30T03:00:59.310Z,98718.34
2023-03-30T03:03:43.234Z,98722.69
2023-03-30T03:06:14.602Z,98705.94
2023-03-30T03:08:44.799Z,98706.91
2023-03-30T03:11:11.905Z,98697.69
2023-03-30T03:13:39.269Z,98703.84
2023-03-30T03:16:10.941Z,98708.28
2023-03-30T03:18:41.971Z,98712.69
2023-03-30T03:21:11.480Z,98717.22
2023-03-30T03:23:38.216Z,98721.63
2023-03-30T03:26:06.639Z,98718.38
2023-03-30T03:28:34.436Z,98718.59
2023-03-30T03:31:02.554Z,98710.06
2023-03-30T03:33:31.887Z,98706.75
2023-03-30T03:36:00.278Z,98699.19
2023-03-30T03:38:28.688Z,98696.69
2023-03-30T03:40:58.727Z,98689.91
2023-03-30T03:43:26.038Z,98702.84
2023-03-30T03:45:54.052Z,98704.50
2023-03-30T03:48:24.476Z,98707.88
2023-03-30T03:50:58.481Z,98707.81
2023-03-30T03:53:27.998Z,98706.84
2023-03-30T03:55:55.448Z,98710.19
2023-03-30T03:58:23.358Z,98690.50
2023-03-30T04:00:51.100Z,98685.41
2023-03-30T04:03:18.320Z,98691.25
2023-03-30T04:05:45.241Z,98691.19
2023-03-30T04:08:12.052Z,98698.78
2023-03-30T04:10:41.369Z,98687.75
2023-03-30T04:13:08.320Z,98692.78
2023-03-30T04:15:36.415Z,98705.59
2023-03-30T04:18:05.212Z,98713.25
2023-03-30T04:20:32.182Z,98715.00
2023-03-30T04:23:01.666Z,98713.31
2023-03-30T04:25:29.273Z,98711.66
2023-03-30T04:27:57.330Z,98716.69
2023-03-30T04:30:24.745Z,98703.03
2023-03-30T04:33:02.832Z,98715.81
2023-03-30T04:35:34.583Z,98719.97
2023-03-30T04:38:02.170Z,98725.94
2023-03-30T04:40:30.281Z,98719.78
2023-03-30T04:43:02.654Z,98723.94
2023-03-30T04:45:31.294Z,98717.88
2023-03-30T04:47:58.213Z,98708.31
2023-03-30T04:50:25.080Z,98705.66
2023-03-30T04:52:51.874Z,98710.69
2023-03-30T04:55:18.651Z,98700.31
2023-03-30T04:57:45.385Z,98710.47
2023-03-30T05:00:13.679Z,98714.63
2023-03-30T05:02:40.888Z,98718.03
2023-03-30T05:05:08.245Z,98716.31
2023-03-30T05:07:35.001Z,98703.44
2023-03-30T05:10:01.728Z,98717.91
2023-03-30T05:12:28.490Z,98717.97
2023-03-30T05:14:55.247Z,98725.66
2023-03-30T05:17:21.992Z,98715.56
2023-03-30T05:19:48.716Z,98724.25
2023-03-30T05:22:16.296Z,98707.34
2023-03-30T05:24:43.014Z,98713.44
2023-03-30T05:27:09.766Z,98718.75
2023-03-30T05:29:36.580Z,98721.47
2023-03-30T05:32:03.457Z,98716.53
2023-03-30T05:34:30.382Z,98727.72
2023-03-30T05:36:57.157Z,98740.72
2023-03-30T05:39:23.940Z,98739.03
2023-03-30T05:41:51.066Z,98743.31
2023-03-30T05:44:19.991Z,98744.97
2023-03-30T05:46:48.235Z,98736.41
2023-03-30T05:49:15.368Z,98743.19
2023-03-30T05:51:42.193Z,98749.13
2023-03-30T05:54:12.667Z,98748.25
2023-03-30T05:56:40.617Z,98742.25
2023-03-30T05:59:07.805Z,98743.84
2023-03-30T06:01:34.998Z,98729.38
2023-03-30T06:04:01.952Z,98733.53
2023-03-30T06:06:29.246Z,98736.16
2023-03-30T06:08:56.334Z,98738.66
2023-03-30T06:11:23.320Z,98742.88
2023-03-30T06:13:50.039Z,98748.03
2023-03-30T06:16:16.855Z,98750.59
2023-03-30T06:18:43.793Z,98753.16
2023-03-30T06:21:11.661Z,98739.47
2023-03-30T06:23:40.766Z,98747.94
2023-03-30T06:26:07.838Z,98749.53
2023-03-30T06:28:35.216Z,98761.38
2023-03-30T06:31:07.859Z,98750.09
2023-03-30T06:33:34.586Z,98764.91
2023-03-30T06:36:01.385Z,98763.16
2023-03-30T06:38:28.175Z,98766.38
2023-03-30T06:40:54.993Z,98767.59
2023-03-30T06:43:24.687Z,98778.47
2023-03-30T06:45:56.970Z,98769.13
2023-03-30T06:48:24.623Z,98772.88
2023-03-30T06:50:53.088Z,98759.72
2023-03-30T06:53:22.314Z,98780.94
2023-03-30T06:55:57.445Z,98781.31
2023-03-30T06:58:27.211Z,98790.56
2023-03-30T07:00:55.156Z,98778.38
2023-03-30T07:03:22.572Z,98781.88
2023-03-30T07:05:52.530Z,98782.69
2023-03-30T07:08:20.207Z,98786.25
2023-03-30T07:10:48.465Z,98778.06
2023-03-30T07:13:17.173Z,98778.44
2023-03-30T07:15:46.066Z,98791.06
2023-03-30T07:18:13.648Z,98787.66
2023-03-30T07:20:40.759Z,98782.09
2023-03-30T07:23:08.503Z,98782.09
2023-03-30T07:25:35.359Z,98765.50
2023-03-30T07:28:02.165Z,98785.50
2023-03-30T07:30:29.037Z,98801.09
2023-03-30T07:32:58.355Z,98797.41
2023-03-30T07:35:26.178Z,98799.50
2023-03-30T07:38:00.456Z,98796.66
2023-03-30T07:40:30.052Z,98794.63
2023-03-30T07:42:57.004Z,98805.22
2023-03-30T07:45:23.813Z,98801.91
2023-03-30T07:47:50.799Z,98809.41
2023-03-30T07:50:17.719Z,98813.94
2023-03-30T07:52:44.504Z,98812.63
2023-03-30T07:55:11.264Z,98815.22
2023-03-30T07:57:38.081Z,98818.31
2023-03-30T08:00:06.217Z,98815.38
2023-03-30T08:02:32.943Z,98818.00
2023-03-30T08:05:00.852Z,98824.47
2023-03-30T08:07:28.718Z,98818.59
2023-03-30T08:09:55.704Z,98821.31
2023-03-30T08:12:22.489Z,98822.56
2023-03-30T08:14:49.305Z,98825.84
2023-03-30T08:17:16.105Z,98827.19
2023-03-30T08:19:42.827Z,98827.00
2023-03-30T08:22:09.605Z,98826.59
2023-03-30T08:24:36.503Z,98835.50
2023-03-30T08:27:03.462Z,98835.25
2023-03-30T08:29:31.494Z,98819.78
2023-03-30T08:31:58.227Z,98832.69
2023-03-30T08:34:25.070Z,98834.94
2023-03-30T08:36:51.811Z,98833.84
2023-03-30T08:39:18.665Z,98835.84
2023-03-30T08:42:12.626Z,98842.22
2023-03-30T08:44:54.671Z,98837.78
2023-03-30T08:47:39.461Z,98841.53
2023-03-30T08:50:14.035Z,98834.00
2023-03-30T08:52:42.056Z,98848.09
2023-03-30T08:55:24.463Z,98857.00
2023-03-30T08:58:01.129Z,98864.53
2023-03-30T09:00:45.169Z,98858.66
2023-03-30T09:04:01.481Z,98867.66
2023-03-30T09:06:53.738Z,98888.38
2023-03-30T09:09:27.729Z,98953.84
2023-03-30T09:12:04.596Z,99017.13
2023-03-30T09:14:42.270Z,99009.88
2023-03-30T09:17:25.639Z,98995.22
2023-03-30T09:20:06.976Z,98985.41
2023-03-30T09:22:43.277Z,99001.22
2023-03-30T09:25:24.024Z,98247.38
2023-03-30T09:28:06.839Z,99029.19
2023-03-30T09:30:53.143Z,99041.44
2023-03-30T09:34:20.289Z,99030.66
2023-03-30T09:37:09.767Z,99030.78
2023-03-30T09:39:37.720Z,99020.28
2023-03-30T09:42:44.599Z,99019.31
2023-03-30T09:45:21.425Z,99019.16
2023-03-30T09:47:48.365Z,99011.09
2023-03-30T09:50:26.689Z,98992.56
2023-03-30T09:53:10.602Z,98960.94
2023-03-30T09:55:38.196Z,98980.63
2023-03-30T09:58:19.016Z,98971.50
2023-03-30T10:01:12.408Z,98967.81
2023-03-30T10:03:42.446Z,98981.97
2023-03-30T10:06:16.028Z,98988.97
2023-03-30T10:08:52.910Z,98991.56
2023-03-30T10:11:29.175Z,98980.66
2023-03-30T10:13:59.555Z,98983.22
2023-03-30T10:16:32.482Z,98984.00
2023-03-30T10:19:09.474Z,98992.75
2023-03-30T10:21:46.823Z,98995.50
2023-03-30T10:24:22.800Z,98993.09
2023-03-30T10:27:03.149Z,98989.47
2023-03-30T10:29:30.353Z,98989.66
2023-03-30T10:32:22.839Z,99002.44
2023-03-30T10:34:54.889Z,98987.63
2023-03-30T10:37:36.232Z,98982.44
2023-03-30T10:40:23.387Z,98995.78
2023-03-30T10:42:55.510Z,98995.81
2023-03-30T10:45:51.687Z,98998.41
2023-03-30T10:48:43.965Z,98995.66
2023-03-30T10:51:24.583Z,99007.50
2023-03-30T10:54:16.515Z,99005.09
2023-03-30T10:57:07.878Z,98996.13
2023-03-30T10:59:59.341Z,98997.63
2023-03-30T11:02:57.451Z,99004.41
2023-03-30T11:05:35.581Z,99005.84
2023-03-30T11:08:24.411Z,99006.09
2023-03-30T11:10:57.064Z,99002.47
2023-03-30T11:13:34.371Z,98987.13
2023-03-30T11:16:16.245Z,98990.38
2023-03-30T11:19:10.638Z,98993.59
2023-03-30T11:22:00.190Z,98986.22
2023-03-30T11:24:28.912Z,98989.91
2023-03-30T11:27:30.775Z,98989.66
2023-03-30T11:30:25.567Z,98991.34
2023-03-30T11:33:11.587Z,98982.72
2023-03-30T11:35:46.901Z,98976.31
2023-03-30T11:38:46.943Z,98984.00
2023-03-30T11:41:23.951Z,98964.91
2023-03-30T11:46:28.173Z,98956.78
2023-03-30T11:49:44.771Z,98963.66
2023-03-30T11:52:41.338Z,98955.31
2023-03-30T11:55:29.736Z,98977.94
2023-03-30T11:58:10.571Z,98954.59
2023-03-30T12:00:53.977Z,98969.59
2023-03-30T12:03:40.302Z,98968.44
2023-03-30T12:06:39.390Z,98980.69
2023-03-30T12:09:25.531Z,98966.19
2023-03-30T12:11:57.512Z,98957.13
2023-03-30T12:14:44.374Z,98951.09
2023-03-30T12:17:39.116Z,98960.06
2023-03-30T12:20:45.875Z,98949.91
2023-03-30T12:23:49.744Z,98938.84
2023-03-30T12:26:29.544Z,98935.41
2023-03-30T12:31:59.108Z,98938.72
2023-03-30T12:34:37.727Z,98944.16
2023-03-30T12:37:22.598Z,98946.13
2023-03-30T12:40:20.496Z,98939.53
2023-03-30T12:43:16.933Z,98961.00
2023-03-30T12:46:20.298Z,98964.75
2023-03-30T12:49:02.048Z,98964.06
2023-03-30T12:52:09.599Z,98955.47
2023-03-30T12:55:19.197Z,98956.31
2023-03-30T12:58:00.961Z,98944.31
2023-03-30T13:01:02.970Z,98967.25
2023-03-30T13:03:40.134Z,99049.94
2023-03-30T13:06:30.898Z,99067.38
2023-03-30T13:09:12.707Z,99019.28
2023-03-30T13:12:20.992Z,99013.06
2023-03-30T13:14:58.406Z,98991.91
2023-03-30T13:17:27.121Z,99001.28
2023-03-30T13:20:35.302Z,98994.56
2023-03-30T13:23:26.965Z,98990.78
2023-03-30T13:26:35.003Z,98983.09
2023-03-30T13:29:15.180Z,98988.88
2023-03-30T13:31:59.600Z,98978.09
2023-03-30T13:35:06.106Z,98968.28
2023-03-30T13:37:55.265Z,98965.28
2023-03-30T13:40:48.567Z,98956.16
2023-03-30T13:43:50.504Z,98952.22
2023-03-30T13:46:58.952Z,98940.59
2023-03-30T13:50:08.967Z,98939.47
2023-03-30T13:52:47.543Z,98928.88
2023-03-30T13:55:41.911Z,98928.19
2023-03-30T13:58:29.399Z,98939.34
2023-03-30T14:01:19.851Z,98947.06
2023-03-30T14:03:55.582Z,98941.00
2023-03-30T14:06:27.081Z,98944.34
2023-03-30T14:09:06.069Z,98948.50
2023-03-30T14:11:54.725Z,98955.38
2023-03-30T14:14:47.382Z,98949.50
2023-03-30T14:17:25.199Z,98941.00
2023-03-30T14:20:48.799Z,98947.13
2023-03-30T14:23:51.944Z,98939.34
2023-03-30T14:26:25.752Z,98940.81
2023-03-30T14:29:08.042Z,98944.00
2023-03-30T14:31:41.676Z,98940.44
2023-03-30T14:34:29.589Z,98941.09
2023-03-30T14:37:08.447Z,98949.56
2023-03-30T14:39:57.857Z,98936.72
2023-03-30T14:42:31.609Z,98930.59
2023-03-30T14:45:00.179Z,98941.41
2023-03-30T14:47:29.211Z,98929.16
2023-03-30T14:50:02.773Z,98919.63
2023-03-30T14:52:49.066Z,98923.34
2023-03-30T14:55:26.852Z,98927.06
2023-03-30T14:57:55.867Z,98926.38
2023-03-30T15:00:24.994Z,98927.50
2023-03-30T15:03:01.433Z,98915.03
2023-03-30T15:05:41.074Z,98925.53
2023-03-30T15:08:22.329Z,98922.50
2023-03-30T15:11:00.938Z,98913.44
2023-03-30T15:13:53.022Z,98918.94
2023-03-30T15:16:28.687Z,98929.31
2023-03-30T15:19:27.589Z,98924.34
2023-03-30T15:22:01.117Z,98908.25
2023-03-30T15:24:34.405Z,98927.28
2023-03-30T15:27:06.795Z,98918.06
2023-03-30T15:29:34.368Z,98936.84
2023-03-30T15:32:35.266Z,98933.84
2023-03-30T15:35:14.077Z,98923.63
2023-03-30T15:37:55.027Z,98914.50
2023-03-30T15:40:46.371Z,98931.59
2023-03-30T15:43:23.402Z,98926.22
2023-03-30T15:45:54.178Z,98922.38
2023-03-30T15:48:42.876Z,98931.06
2023-03-30T15:51:19.571Z,98926.28
2023-03-30T15:54:06.221Z,98936.13
2023-03-30T15:56:59.052Z,98943.41
2023-03-30T15:59:33.938Z,98923.41
2023-03-30T16:02:21.180Z,98927.28
2023-03-30T16:04:51.855Z,98946.34
2023-03-30T16:07:21.792Z,98944.13
2023-03-30T16:09:49.205Z,98926.66
2023-03-30T16:12:19.881Z,98920.34
2023-03-30T16:14:51.062Z,98931.06
2023-03-30T16:17:18.264Z,98924.75
2023-03-30T16:19:45.766Z,98929.47
2023-03-30T16:22:14.772Z,98929.94
2023-03-30T16:24:42.811Z,98918.34
2023-03-30T16:27:13.255Z,98919.59
2023-03-30T16:29:40.294Z,98933.50
2023-03-30T16:32:07.290Z,98925.97
2023-03-30T16:34:34.159Z,98927.00
2023-03-30T16:37:02.050Z,98926.31
2023-03-30T16:39:30.563Z,98940.97
2023-03-30T16:41:57.732Z,98936.81
2023-03-30T16:44:25.421Z,98936.97
2023-03-30T16:46:53.155Z,98935.38
2023-03-30T16:49:24.669Z,98941.44
2023-03-30T16:51:54.427Z,98937.41
2023-03-30T16:54:31.241Z,98943.53
2023-03-30T16:57:01.662Z,98933.53
2023-03-30T16:59:33.367Z,98922.53
2023-03-30T17:02:04.962Z,98933.81
2023-03-30T17:04:32.025Z,98933.06
2023-03-30T17:06:59.060Z,98928.91
2023-03-30T17:09:27.236Z,98925.56
2023-03-30T17:11:54.532Z,98931.63
2023-03-30T17:14:24.002Z,98930.94
2023-03-30T17:16:51.347Z,98923.44
2023-03-30T17:19:18.788Z,98930.44
2023-03-30T17:21:46.348Z,98936.47
2023-03-30T17:24:15.415Z,98933.25
2023-03-30T17:26:42.897Z,98924.88
2023-03-30T17:29:10.953Z,98933.59
2023-03-30T17:31:38.818Z,98944.84
2023-03-30T17:34:07.236Z,98946.66
2023-03-30T17:36:37.708Z,98942.50
2023-03-30T17:39:05.323Z,98953.72
2023-03-30T17:41:34.574Z,98955.47
2023-03-30T17:44:01.990Z,98954.69
2023-03-30T17:46:29.251Z,98956.41
2023-03-30T17:48:58.276Z,98956.41
2023-03-30T17:51:25.784Z,98963.28
2023-03-30T17:53:53.181Z,98955.63
2023-03-30T17:56:20.779Z,98948.91
2023-03-30T17:58:49.785Z,98958.41
2023-03-30T18:01:23.184Z,98943.19
2023-03-30T18:03:51.061Z,98957.09
2023-03-30T18:06:18.514Z,98959.84
2023-03-30T18:08:47.214Z,98952.38
2023-03-30T18:11:14.704Z,98959.44
2023-03-30T18:13:42.154Z,98960.50
2023-03-30T18:16:17.695Z,98962.44
2023-03-30T18:18:50.907Z,98956.69
2023-03-30T18:21:18.397Z,98971.38
2023-03-30T18:23:46.289Z,98957.13
2023-03-30T18:26:13.483Z,98954.00
2023-03-30T18:28:44.060Z,98971.28
2023-03-30T18:31:11.066Z,98963.84
2023-03-30T18:33:39.185Z,98962.34
2023-03-30T18:36:08.045Z,98964.22
2023-03-30T18:38:35.253Z,98963.50
2023-03-30T18:41:02.014Z,98965.38
2023-03-30T18:43:29.252Z,98967.22
2023-03-30T18:46:01.479Z,98968.97
2023-03-30T18:48:29.100Z,98974.19
2023-03-30T18:50:57.051Z,98973.44
2023-03-30T18:53:29.119Z,98966.72
2023-03-30T18:56:00.148Z,98975.34
2023-03-30T18:58:36.369Z,98982.25
2023-03-30T19:01:03.825Z,98974.78
2023-03-30T19:03:33.465Z,98977.53
2023-03-30T19:06:01.279Z,98980.44
2023-03-30T19:08:28.973Z,98974.72
2023-03-30T19:11:01.150Z,98969.06
2023-03-30T19:13:28.757Z,98962.50
2023-03-30T19:15:56.326Z,98967.81
2023-03-30T19:18:24.857Z,98965.44
2023-03-30T19:20:55.287Z,98964.00
2023-03-30T19:23:23.813Z,98966.78
2023-03-30T19:25:52.486Z,98974.53
2023-03-30T19:28:20.028Z,98967.91
2023-03-30T19:30:48.525Z,98963.81
2023-03-30T19:33:19.928Z,98956.34
2023-03-30T19:35:49.159Z,98959.00
2023-03-30T19:38:16.685Z,98956.59
2023-03-30T19:40:45.064Z,98955.00
2023-03-30T19:43:12.432Z,98953.41
2023-03-30T19:45:42.592Z,98958.56
2023-03-30T19:48:10.958Z,98959.53
2023-03-30T19:50:39.869Z,98952.81
2023-03-30T19:53:07.240Z,98948.66
2023-03-30T19:55:36.004Z,98947.00
2023-03-30T19:58:03.388Z,98940.34
2023-03-30T20:00:35.203Z,98931.94
2023-03-30T20:03:03.360Z,98931.16
2023-03-30T20:05:30.886Z,98933.72
2023-03-30T20:07:58.335Z,98940.53
2023-03-30T20:10:26.522Z,98937.97
2023-03-30T20:12:54.301Z,98928.66
2023-03-30T20:15:25.872Z,98931.22
2023-03-30T20:17:56.415Z,98928.66
2023-03-30T20:20:25.302Z,98928.66
2023-03-30T20:22:55.896Z,98926.06
2023-03-30T20:25:23.626Z,98935.44
2023-03-30T20:27:50.453Z,98928.59
2023-03-30T20:30:17.433Z,98923.53
2023-03-30T20:32:50.404Z,98926.06
2023-03-30T20:35:25.419Z,98925.25
2023-03-30T20:37:52.458Z,98922.72
2023-03-30T20:40:20.970Z,98926.94
2023-03-30T20:42:47.916Z,98918.44
2023-03-30T20:45:14.770Z,98914.97
2023-03-30T20:47:41.581Z,98920.88
2023-03-30T20:50:09.244Z,98914.94
2023-03-30T20:52:36.592Z,98904.69
2023-03-30T20:55:03.804Z,98914.00
2023-03-30T20:57:30.632Z,98915.66
2023-03-30T20:59:57.444Z,98910.56
2023-03-30T21:02:24.214Z,98909.66
2023-03-30T21:04:52.923Z,98914.66
2023-03-30T21:07:19.732Z,98908.72
2023-03-30T21:09:47.186Z,98902.72
2023-03-30T21:12:13.890Z,98893.38
2023-03-30T21:14:40.725Z,98892.53
2023-03-30T21:17:07.736Z,98897.63
2023-03-30T21:19:34.771Z,98898.53
2023-03-30T21:22:01.573Z,98894.31
2023-03-30T21:24:30.273Z,98883.28
2023-03-30T21:26:57.036Z,98882.50
2023-03-30T21:29:23.833Z,98875.72
2023-03-30T21:31:50.704Z,98873.19
2023-03-30T21:34:18.730Z,98874.03
2023-03-30T21:36:45.967Z,98872.38
2023-03-30T21:39:13.509Z,98870.69
2023-03-30T21:41:40.316Z,98874.16
2023-03-30T21:44:07.565Z,98856.41
2023-03-30T21:46:34.395Z,98864.03
2023-03-30T21:49:01.249Z,98852.25
2023-03-30T21:51:31.405Z,98842.09
2023-03-30T21:53:58.874Z,98845.56
2023-03-30T21:56:29.802Z,98845.66
2023-03-30T21:58:58.053Z,98844.91
2023-03-30T22:01:25.988Z,98837.34
2023-03-30T22:03:55.243Z,98840.81
2023-03-30T22:06:23.139Z,98845.09
2023-03-30T22:08:50.563Z,98833.28
2023-03-30T22:11:22.001Z,98835.94
2023-03-30T22:13:50.072Z,98833.44
2023-03-30T22:16:28.613Z,98838.56
2023-03-30T22:18:55.898Z,98831.03
2023-03-30T22:21:29.045Z,98831.03
2023-03-30T22:23:55.962Z,98828.59
2023-03-30T22:26:23.240Z,98818.41
2023-03-30T22:28:49.997Z,98822.63
2023-03-30T22:31:16.885Z,98811.69
2023-03-30T22:33:44.748Z,98807.53
2023-03-30T22:36:29.744Z,98806.72
2023-03-30T22:38:58.329Z,98810.16
2023-03-30T22:41:26.458Z,98793.25
2023-03-30T22:43:56.613Z,98786.41
2023-03-30T22:46:25.856Z,98792.34
2023-03-30T22:48:55.323Z,98777.09
2023-03-30T22:51:28.464Z,98782.13
2023-03-30T22:54:00.519Z,98771.09
2023-03-30T22:56:29.372Z,98765.19
2023-03-30T22:58:58.941Z,98759.25
2023-03-30T23:01:25.773Z,98754.22
2023-03-30T23:03:53.347Z,98760.88
2023-03-30T23:06:20.404Z,98754.94
2023-03-30T23:08:48.455Z,98759.97
2023-03-30T23:11:15.745Z,98754.81
2023-03-30T23:13:42.499Z,98743.78
2023-03-30T23:16:10.435Z,98747.94
2023-03-30T23:18:38.069Z,98740.28
2023-03-30T23:21:07.334Z,98746.09
2023-03-30T23:23:36.307Z,98739.25
2023-03-30T23:26:09.900Z,98740.94
2023-03-30T23:28:41.334Z,98735.97
2023-03-30T23:31:14.864Z,98730.09
2023-03-30T23:33:42.763Z,98722.47
2023-03-30T23:36:14.285Z,98727.56
2023-03-30T23:38:41.894Z,98719.06
2023-03-30T23:41:12.472Z,98727.56
2023-03-30T23:43:39.241Z,98709.81
2023-03-30T23:46:06.388Z,98699.66
2023-03-30T23:48:33.373Z,98689.56
2023-03-30T23:51:00.298Z,98683.69
2023-03-30T23:53:27.194Z,98681.22
2023-03-30T23:55:54.336Z,98671.06
2023-03-30T23:58:21.447Z,98667.75
